Atlas, Pennsylvania
Current Conditions -  °F | °C
As of 10:53 PM on Wednesday 22 Oct 2014 (Local Time) from KSEG Reporting Station
Overcast Overcast  
Wind Chill: 50°   Ceiling: 2300
Heat Index: 50°   Visibility: 10mi
Dew Point: 44°   Wind: 9mph
Humidity: 80%   Direction: 350°N
Pressure: 29.99"   Gusts: NA
Location:  40.7952°N, 76.4365°W
Report Text: KSEG 230253Z AUTO 35008KT 10SM OVC023 10/07 A2999 RMK AO2 RAE33 SLP155 P0000 60000 T01000067 58008
Loading
Personal Weather Stations






























Interactive Weather Map
Tropical Storm Tracking
New forecast layout! Learn more

10-Day Weather Forecast

Advertisements
Track Severe Weather on mobile